MSC Mandraki — SZUH — position and weather

sailwx.info

Track history (hours):
 
Tides and Currents Weather Stations Pressure Air Temp Water Temp Dewpoint Dewpoint Depression Visibility Wind Speed Wind Dir Waves Ship Positions

MSC Mandraki

Last reported at 2015-Mar-14 13:11 UTC. Time now 2015-Mar-31 12:43 UTC.
Position S 20°08' E 057°28'.
Warning: this ship's position is 16 days out of date.

Length 294 m; draft 13.5 m.

Type: Ship. MMSI: 240265000.

Date/timePositionNaut miles runAvg speedWind from/ knotsBaromVisibWave heightAir tempDewpointWater temp
2015-Mar-14 13:11S 20°08' E 057°28'1 2.2
2015-Mar-14 12:32S 20°09' E 057°29'0 0.0
2015-Mar-14 11:32S 20°09' E 057°29'0 0.0
2015-Mar-14 10:32S 20°09' E 057°29'0 0.0
2015-Mar-14 09:32S 20°09' E 057°29'0 0.0
2015-Mar-14 08:32S 20°09' E 057°29'0 0.0
2015-Mar-14 07:32S 20°09' E 057°29'0 0.0
2015-Mar-14 06:32S 20°09' E 057°29'0 0.0
2015-Mar-14 05:32S 20°09' E 057°29'0 0.0
2015-Mar-14 04:32S 20°09' E 057°29'0 0.0
2015-Mar-14 03:32S 20°09' E 057°29'0 0.0
2015-Mar-14 02:32S 20°09' E 057°29'0 0.0
2015-Mar-14 01:32S 20°09' E 057°29'0 0.0
2015-Mar-14 00:32S 20°09' E 057°29'0 0.0
2015-Mar-13 23:32S 20°09' E 057°29'0 0.0
2015-Mar-13 22:32S 20°09' E 057°29'0 0.0
2015-Mar-13 21:32S 20°09' E 057°29'0 0.0
2015-Mar-13 20:32S 20°09' E 057°29'0 0.0
2015-Mar-13 19:32S 20°09' E 057°29'0 0.0
2015-Mar-13 18:32S 20°09' E 057°29'0 0.0
2015-Mar-13 17:32S 20°09' E 057°29'0 0.0
2015-Mar-13 16:32S 20°09' E 057°29'0 0.0
2015-Mar-13 15:32S 20°09' E 057°29'0 0.0
2015-Mar-13 14:29S 20°09' E 057°29'0 0.0
2015-Mar-13 13:32S 20°09' E 057°29'0 0.0
2015-Mar-13 12:32S 20°09' E 057°29'0 0.0
2015-Mar-13 11:32S 20°09' E 057°29'0 0.0
2015-Mar-13 10:32S 20°09' E 057°29'0 0.0
2015-Mar-13 09:33S 20°09' E 057°29'2 2.0
2015-Mar-13 08:32S 20°08' E 057°27'  
2015-Mar-07 23:04S 33°30' E 030°56'16815.3
2015-Mar-07 12:04S 33°31' E 027°35'9614.5
2015-Mar-07 05:28S 33°49' E 025°42'1 0.3
2015-Mar-07 03:12S 33°48' E 025°41'0 0.0
2015-Mar-07 00:30S 33°48' E 025°41'1 0.0
2015-Mar-04 22:24S 33°48' E 025°42'4 4.2
2015-Mar-04 21:32S 33°52' E 025°43'3 1.3
2015-Mar-04 19:26S 33°52' E 025°46'  
Track history (hours):
 
Tides and Currents Weather Stations Pressure Air Temp Water Temp Dewpoint Dewpoint Depression Visibility Wind Speed Wind Dir Waves Ship Positions

MSC Mandraki

Last reported at 2015-Mar-14 13:11 UTC. Time now 2015-Mar-31 12:43 UTC.
Position S 20°08' E 057°28'.
Warning: this ship's position is 16 days out of date.

Length 294 m; draft 13.5 m.

Type: Ship. MMSI: 240265000.

Date/timePositionNaut miles runAvg speedWind from/ knotsBaromVisibWave heightAir tempDewpointWater temp
2015-Mar-14 13:11S 20°08' E 057°28'1 2.2
2015-Mar-14 12:32S 20°09' E 057°29'0 0.0
2015-Mar-14 11:32S 20°09' E 057°29'0 0.0
2015-Mar-14 10:32S 20°09' E 057°29'0 0.0
2015-Mar-14 09:32S 20°09' E 057°29'0 0.0
2015-Mar-14 08:32S 20°09' E 057°29'0 0.0
2015-Mar-14 07:32S 20°09' E 057°29'0 0.0
2015-Mar-14 06:32S 20°09' E 057°29'0 0.0
2015-Mar-14 05:32S 20°09' E 057°29'0 0.0
2015-Mar-14 04:32S 20°09' E 057°29'0 0.0
2015-Mar-14 03:32S 20°09' E 057°29'0 0.0
2015-Mar-14 02:32S 20°09' E 057°29'0 0.0
2015-Mar-14 01:32S 20°09' E 057°29'0 0.0
2015-Mar-14 00:32S 20°09' E 057°29'0 0.0
2015-Mar-13 23:32S 20°09' E 057°29'0 0.0
2015-Mar-13 22:32S 20°09' E 057°29'0 0.0
2015-Mar-13 21:32S 20°09' E 057°29'0 0.0
2015-Mar-13 20:32S 20°09' E 057°29'0 0.0
2015-Mar-13 19:32S 20°09' E 057°29'0 0.0
2015-Mar-13 18:32S 20°09' E 057°29'0 0.0
2015-Mar-13 17:32S 20°09' E 057°29'0 0.0
2015-Mar-13 16:32S 20°09' E 057°29'0 0.0
2015-Mar-13 15:32S 20°09' E 057°29'0 0.0
2015-Mar-13 14:29S 20°09' E 057°29'0 0.0
2015-Mar-13 13:32S 20°09' E 057°29'0 0.0
2015-Mar-13 12:32S 20°09' E 057°29'0 0.0
2015-Mar-13 11:32S 20°09' E 057°29'0 0.0
2015-Mar-13 10:32S 20°09' E 057°29'0 0.0
2015-Mar-13 09:33S 20°09' E 057°29'2 2.0
2015-Mar-13 08:32S 20°08' E 057°27'  
2015-Mar-07 23:04S 33°30' E 030°56'16815.3
2015-Mar-07 12:04S 33°31' E 027°35'9614.5
2015-Mar-07 05:28S 33°49' E 025°42'1 0.3
2015-Mar-07 03:12S 33°48' E 025°41'0 0.0
2015-Mar-07 00:30S 33°48' E 025°41'1 0.0
2015-Mar-04 22:24S 33°48' E 025°42'4 4.2
2015-Mar-04 21:32S 33°52' E 025°43'3 1.3
2015-Mar-04 19:26S 33°52' E 025°46'  

Dump ship's entire track history